Time;durP1;ratioP1;P1;durP2;ratioP2;P2;SDS_P1;SDS_P2;PMS_P1;PMS_P2;Temp;Humidity;BMP_temperature;BMP_pressure;BME280_temperature;BME280_humidity;BME280_pressure;Samples;Min_cycle;Max_cycle;Signal;HPM_P1;HPM_P2
2023/10/17 00:01:49;;;;;;;17.38;14.38;;;13.10;98.90;;;;;;4994030;28;20050;-68
2023/10/17 00:06:43;;;;;;;17.38;14.18;;;13.10;99.00;;;;;;4998503;28;20038;-68
2023/10/17 00:09:09;;;;;;;18.98;14.98;;;13.10;99.10;;;;;;5012669;28;20033;-67
2023/10/17 00:14:23;;;;;;;19.17;14.52;;;13.10;99.20;;;;;;5011764;28;20026;-67
2023/10/17 00:16:56;;;;;;;21.98;14.93;;;13.00;99.10;;;;;;5013220;28;20022;-67
2023/10/17 00:19:25;;;;;;;16.48;14.68;;;12.90;99.30;;;;;;5012931;28;20025;-68
2023/10/17 00:21:52;;;;;;;18.63;14.88;;;13.00;99.30;;;;;;5013468;28;20021;-68
2023/10/17 00:24:19;;;;;;;21.05;15.25;;;13.00;99.40;;;;;;5013098;28;20527;-67
2023/10/17 00:26:47;;;;;;;19.38;14.55;;;13.00;99.40;;;;;;5013332;28;20459;-67
2023/10/17 00:29:13;;;;;;;18.58;14.57;;;13.00;99.40;;;;;;5013302;28;20080;-67
2023/10/17 00:31:40;;;;;;;21.42;15.40;;;13.00;99.40;;;;;;5013428;28;20025;-69
2023/10/17 00:34:24;;;;;;;22.70;15.48;;;13.00;99.40;;;;;;5013049;28;20025;-72
2023/10/17 00:36:50;;;;;;;18.83;14.82;;;13.00;99.50;;;;;;5013141;28;20018;-72
2023/10/17 00:39:29;;;;;;;21.30;16.25;;;13.00;99.50;;;;;;5013223;28;20105;-71
2023/10/17 00:44:39;;;;;;;20.05;15.82;;;12.90;99.50;;;;;;5013011;28;20430;-67
2023/10/17 00:47:11;;;;;;;22.50;15.35;;;13.00;99.50;;;;;;5012965;28;20384;-67
2023/10/17 00:49:44;;;;;;;21.25;15.43;;;12.90;99.50;;;;;;5012847;28;20030;-67
2023/10/17 00:52:18;;;;;;;17.85;14.82;;;12.90;99.60;;;;;;5013212;28;20023;-67
2023/10/17 00:54:46;;;;;;;19.00;15.35;;;13.00;99.60;;;;;;5011788;28;20145;-72
2023/10/17 00:57:14;;;;;;;18.58;14.68;;;12.90;99.60;;;;;;5013112;28;20017;-71
2023/10/17 00:59:50;;;;;;;17.42;14.68;;;12.90;99.60;;;;;;5012778;28;20102;-71
2023/10/17 01:02:16;;;;;;;19.27;14.55;;;12.90;99.60;;;;;;5012647;28;20474;-67
2023/10/17 01:04:44;;;;;;;18.23;14.90;;;12.90;99.70;;;;;;5012759;28;20463;-67
2023/10/17 01:07:12;;;;;;;17.20;14.60;;;12.80;99.70;;;;;;5012960;28;20076;-66
2023/10/17 01:09:38;;;;;;;16.38;14.25;;;12.90;99.80;;;;;;5012545;28;20041;-67
2023/10/17 01:12:10;;;;;;;19.13;14.98;;;12.80;99.70;;;;;;5012909;28;20153;-67
2023/10/17 01:14:36;;;;;;;25.17;15.27;;;12.80;99.80;;;;;;5012838;28;20018;-67
2023/10/17 01:17:12;;;;;;;18.73;15.30;;;12.80;99.80;;;;;;5015721;28;20517;-67
2023/10/17 01:19:38;;;;;;;17.35;15.00;;;12.80;99.90;;;;;;5016076;28;20156;-67
2023/10/17 01:22:04;;;;;;;17.55;13.75;;;12.80;99.90;;;;;;5016449;28;20104;-67
2023/10/17 01:24:29;;;;;;;16.20;14.55;;;12.80;99.90;;;;;;5014770;28;20022;-68
2023/10/17 01:26:55;;;;;;;19.55;15.05;;;12.80;99.80;;;;;;5016300;28;20026;-66
2023/10/17 01:29:21;;;;;;;17.27;14.27;;;12.90;99.90;;;;;;5016193;28;20037;-66
2023/10/17 01:31:48;;;;;;;15.30;13.73;;;12.80;99.90;;;;;;5015769;28;20026;-68
2023/10/17 01:34:15;;;;;;;19.52;14.90;;;12.70;99.90;;;;;;5016146;28;20101;-67
2023/10/17 01:36:43;;;;;;;16.33;13.80;;;12.70;99.90;;;;;;5015053;28;20025;-67
2023/10/17 01:39:09;;;;;;;17.27;13.93;;;12.70;99.90;;;;;;5010964;28;20471;-67
2023/10/17 01:41:38;;;;;;;15.25;13.57;;;12.70;99.90;;;;;;5015853;28;20038;-66
2023/10/17 01:44:04;;;;;;;17.40;14.07;;;12.80;99.90;;;;;;5015910;28;20037;-67
2023/10/17 01:46:30;;;;;;;19.27;14.35;;;12.70;99.90;;;;;;5015493;28;20105;-67
2023/10/17 01:49:10;;;;;;;19.33;14.27;;;12.80;99.90;;;;;;5015965;28;20182;-65
2023/10/17 01:51:36;;;;;;;17.60;13.15;;;12.80;99.90;;;;;;5015839;28;20042;-70
2023/10/17 01:54:13;;;;;;;18.00;14.00;;;12.80;99.90;;;;;;5015602;28;20495;-72
2023/10/17 01:56:47;;;;;;;18.90;13.25;;;12.80;99.90;;;;;;4998855;28;20030;-67
2023/10/17 01:59:17;;;;;;;15.10;13.13;;;12.80;99.90;;;;;;4995701;28;20022;-67
2023/10/17 02:01:42;;;;;;;17.48;12.93;;;12.70;99.90;;;;;;5010629;28;20091;-68
2023/10/17 02:04:18;;;;;;;15.85;13.82;;;12.70;99.90;;;;;;4995785;28;20109;-68
2023/10/17 02:06:44;;;;;;;17.88;13.10;;;12.70;99.90;;;;;;4994502;28;20525;-66
2023/10/17 02:11:55;;;;;;;16.92;13.25;;;12.70;99.90;;;;;;4995874;28;20054;-67
2023/10/17 02:14:22;;;;;;;16.77;13.60;;;12.60;99.90;;;;;;4995565;28;20022;-66
2023/10/17 02:16:51;;;;;;;14.88;13.13;;;12.60;99.90;;;;;;4995505;28;20031;-66
2023/10/17 02:19:19;;;;;;;17.95;12.25;;;12.60;99.90;;;;;;5010398;28;20025;-67
2023/10/17 02:21:49;;;;;;;14.57;12.13;;;12.60;99.90;;;;;;5014574;28;20601;-68
2023/10/17 02:24:19;;;;;;;13.82;11.98;;;12.60;99.90;;;;;;5013761;28;20033;-67
2023/10/17 02:26:55;;;;;;;14.75;11.85;;;12.60;99.90;;;;;;5014989;28;20048;-68
2023/10/17 02:29:26;;;;;;;11.85;10.65;;;12.50;99.90;;;;;;5014479;28;20401;-69
2023/10/17 02:31:57;;;;;;;12.95;11.55;;;12.60;99.90;;;;;;5014963;28;20041;-66
2023/10/17 02:34:23;;;;;;;13.18;10.98;;;12.60;99.90;;;;;;5014983;28;20026;-67
2023/10/17 02:36:55;;;;;;;13.90;10.20;;;12.60;99.90;;;;;;5014799;28;20374;-66
2023/10/17 02:39:20;;;;;;;14.57;10.60;;;12.60;99.90;;;;;;5015126;28;20042;-67
2023/10/17 02:41:46;;;;;;;14.63;11.10;;;12.60;99.90;;;;;;5014703;28;20414;-67
2023/10/17 02:44:19;;;;;;;12.88;10.13;;;12.60;99.90;;;;;;5014432;28;20382;-67
2023/10/17 02:46:44;;;;;;;;;;;12.50;99.90;;;;;;5015377;28;20041;-67
2023/10/17 02:49:13;;;;;;;13.13;10.30;;;12.50;99.90;;;;;;5014703;28;20344;-67
2023/10/17 02:51:42;;;;;;;11.77;10.05;;;12.60;99.90;;;;;;5014561;28;20025;-70
2023/10/17 02:54:12;;;;;;;13.70;10.05;;;12.50;99.90;;;;;;5014501;28;20026;-66
2023/10/17 02:56:38;;;;;;;13.43;10.40;;;12.50;99.90;;;;;;5014656;28;20022;-66
2023/10/17 02:59:09;;;;;;;13.18;10.13;;;12.50;99.90;;;;;;5014338;28;20026;-67
2023/10/17 03:01:37;;;;;;;12.52;9.68;;;12.50;99.90;;;;;;5014444;28;20116;-67
2023/10/17 03:04:10;;;;;;;10.52;9.43;;;12.50;99.90;;;;;;5014472;28;20033;-67
2023/10/17 03:06:43;;;;;;;11.45;9.35;;;12.60;99.90;;;;;;5014125;28;20026;-66
2023/10/17 03:14:39;;;;;;;12.10;9.15;;;12.50;99.90;;;;;;5014028;28;20037;-66
2023/10/17 03:17:07;;;;;;;13.55;9.48;;;12.50;99.90;;;;;;5013921;28;20026;-67
2023/10/17 03:19:34;;;;;;;10.88;9.02;;;12.50;99.80;;;;;;5014226;28;20048;-67
2023/10/17 03:22:16;;;;;;;10.95;8.85;;;12.50;99.80;;;;;;5014058;28;20028;-70
2023/10/17 03:24:59;;;;;;;11.85;9.05;;;12.50;99.70;;;;;;5014258;28;20024;-72
2023/10/17 03:27:35;;;;;;;12.07;8.45;;;12.40;99.70;;;;;;5013658;28;20034;-67
2023/10/17 03:30:10;;;;;;;10.15;8.10;;;12.40;99.70;;;;;;5013966;28;20389;-66
2023/10/17 03:32:52;;;;;;;10.57;7.88;;;12.40;99.70;;;;;;5013936;28;20021;-67
2023/10/17 03:35:21;;;;;;;12.30;8.10;;;12.40;99.60;;;;;;5013910;28;20026;-66
2023/10/17 03:37:47;;;;;;;9.77;6.97;;;12.40;99.50;;;;;;5013748;28;20034;-67
2023/10/17 03:40:17;;;;;;;12.85;8.43;;;12.50;99.30;;;;;;5013483;28;20026;-66
2023/10/17 03:42:55;;;;;;;9.50;8.18;;;12.40;99.20;;;;;;5013626;28;20057;-66
2023/10/17 03:47:53;;;;;;;9.60;8.23;;;12.40;99.20;;;;;;5013766;28;20037;-67
2023/10/17 03:50:32;;;;;;;9.93;8.20;;;12.40;99.20;;;;;;5013706;28;20034;-66
2023/10/17 03:53:07;;;;;;;11.07;8.13;;;12.40;99.20;;;;;;5013588;28;20272;-67
2023/10/17 03:55:35;;;;;;;9.38;7.28;;;12.40;99.10;;;;;;5013750;28;20022;-66
2023/10/17 03:58:08;;;;;;;7.65;6.75;;;12.40;99.20;;;;;;5013518;28;20390;-65
2023/10/17 04:00:41;;;;;;;9.95;7.38;;;12.40;99.20;;;;;;5013640;28;20029;-66
2023/10/17 04:03:13;;;;;;;8.63;7.30;;;12.30;99.20;;;;;;5013177;28;20569;-66
2023/10/17 04:05:39;;;;;;;10.27;8.82;;;12.30;99.10;;;;;;5013660;28;20084;-66
2023/10/17 04:08:05;;;;;;;11.45;7.70;;;12.40;99.10;;;;;;5013223;28;20471;-66
2023/10/17 04:10:49;;;;;;;10.15;7.32;;;12.40;99.10;;;;;;5013084;28;20133;-67
2023/10/17 04:13:23;;;;;;;10.70;7.53;;;12.30;99.10;;;;;;5013271;28;20045;-67
2023/10/17 04:15:49;;;;;;;9.88;7.75;;;12.30;99.10;;;;;;5013533;28;20026;-66
2023/10/17 04:18:14;;;;;;;10.45;6.80;;;12.40;99.10;;;;;;5013231;28;20040;-67
2023/10/17 04:20:43;;;;;;;10.82;7.32;;;12.50;98.40;;;;;;5013473;28;20034;-66
2023/10/17 04:23:21;;;;;;;8.30;7.28;;;12.50;98.00;;;;;;5013328;28;20029;-66
2023/10/17 04:25:50;;;;;;;9.52;6.80;;;12.60;98.00;;;;;;5013102;28;20026;-66
2023/10/17 04:28:16;;;;;;;8.45;6.93;;;12.70;97.80;;;;;;5013375;28;20018;-67
2023/10/17 04:30:48;;;;;;;7.82;6.28;;;12.60;97.80;;;;;;5013167;28;20109;-67
2023/10/17 04:33:14;;;;;;;9.03;6.67;;;12.60;97.70;;;;;;5013149;28;20026;-66
2023/10/17 04:35:46;;;;;;;8.80;6.63;;;12.60;97.70;;;;;;5013030;28;20024;-67
2023/10/17 04:38:19;;;;;;;8.75;7.00;;;12.60;97.60;;;;;;5028398;28;20533;-66
2023/10/17 04:42:04;;;;;;;10.95;7.07;;;12.70;97.60;;;;;;5013168;28;20050;-67
2023/10/17 04:46:13;;;;;;;8.75;6.45;;;12.60;97.40;;;;;;5013245;28;20004;-66
2023/10/17 04:48:46;;;;;;;8.20;6.35;;;12.60;97.50;;;;;;5013052;28;20495;-66
2023/10/17 04:51:19;;;;;;;7.05;6.25;;;12.60;97.40;;;;;;5015080;28;20152;-68
2023/10/17 04:53:48;;;;;;;7.80;5.35;;;12.60;97.50;;;;;;5016656;28;20077;-68
2023/10/17 04:56:21;;;;;;;8.27;5.63;;;12.60;97.40;;;;;;5016767;28;20069;-67
2023/10/17 05:01:36;;;;;;;7.40;5.60;;;12.60;97.30;;;;;;5015991;28;20022;-67
2023/10/17 05:04:19;;;;;;;7.45;5.75;;;12.60;97.30;;;;;;5016669;28;20076;-66
2023/10/17 06:16:49;;;;;;;7.30;5.30;;;12.60;97.30;;;;;;5015382;28;19917;-67
2023/10/17 06:18:18;;;;;;;8.55;5.53;;;12.60;97.40;;;;;;5010366;28;20057;-77
2023/10/17 06:34:18;;;;;;;8.38;5.15;;;12.40;97.60;;;;;;5004705;28;20034;-78
2023/10/17 06:36:49;;;;;;;6.03;4.60;;;12.40;97.60;;;;;;5008484;28;20475;-78
2023/10/17 06:41:40;;;;;;;7.22;4.75;;;12.40;97.40;;;;;;4997471;28;20042;-78
2023/10/17 06:44:06;;;;;;;8.93;4.97;;;12.60;97.40;;;;;;5009785;28;20028;-77
2023/10/17 06:46:48;;;;;;;9.07;5.10;;;12.50;97.20;;;;;;5007695;28;20101;-76
2023/10/17 06:54:41;;;;;;;6.35;4.72;;;12.40;97.30;;;;;;5004149;28;20034;-77
2023/10/17 06:57:18;;;;;;;7.40;5.15;;;12.30;97.40;;;;;;4996188;28;20078;-74
2023/10/17 06:59:54;;;;;;;6.57;4.72;;;12.50;97.30;;;;;;5005805;28;20054;-77
2023/10/17 07:02:30;;;;;;;9.15;4.65;;;12.60;97.40;;;;;;5006740;28;20493;-75
2023/10/17 07:05:00;;;;;;;11.70;5.07;;;12.70;97.30;;;;;;5009250;28;20036;-76
2023/10/17 07:07:39;;;;;;;8.82;4.47;;;12.40;97.40;;;;;;5004780;28;20030;-72
2023/10/17 07:10:37;;;;;;;7.30;4.90;;;12.50;97.40;;;;;;5002166;28;20030;-72
2023/10/17 07:13:41;;;;;;;8.27;4.80;;;12.40;97.50;;;;;;5006448;28;20056;-72
2023/10/17 07:16:16;;;;;;;8.60;5.15;;;12.30;97.60;;;;;;5011314;28;20037;-72
2023/10/17 07:18:47;;;;;;;8.57;5.70;;;12.30;97.70;;;;;;5008341;28;20023;-77
2023/10/17 07:23:42;;;;;;;5.97;4.78;;;12.20;97.70;;;;;;5008678;28;20030;-74
2023/10/17 07:26:18;;;;;;;7.40;4.95;;;12.20;97.70;;;;;;5003293;28;20168;-74
2023/10/17 07:28:49;;;;;;;10.77;4.85;;;12.20;97.70;;;;;;5013969;28;20161;-73
2023/10/17 07:31:16;;;;;;;7.63;5.75;;;12.20;97.70;;;;;;5011100;28;20014;-75
2023/10/17 07:33:43;;;;;;;7.18;5.30;;;12.20;97.80;;;;;;4995703;28;20018;-72
2023/10/17 07:36:15;;;;;;;6.97;5.25;;;12.20;97.80;;;;;;4997414;28;20052;-71
2023/10/17 07:38:43;;;;;;;6.72;4.97;;;12.20;97.80;;;;;;5019097;28;20475;-71
2023/10/17 07:41:13;;;;;;;8.38;5.18;;;12.20;97.80;;;;;;5000336;28;20026;-76
2023/10/17 07:43:44;;;;;;;9.27;4.97;;;12.20;97.80;;;;;;5011910;28;20026;-72
2023/10/17 07:46:25;;;;;;;8.30;5.38;;;12.20;98.10;;;;;;5009512;28;20434;-72
2023/10/17 07:48:51;;;;;;;7.88;4.97;;;12.20;97.60;;;;;;5007514;28;20046;-73
2023/10/17 07:51:17;;;;;;;9.52;4.90;;;12.30;97.60;;;;;;4997617;28;20014;-74
2023/10/17 07:53:46;;;;;;;6.32;4.88;;;12.20;97.70;;;;;;5002267;28;20146;-75
2023/10/17 07:56:24;;;;;;;7.03;4.45;;;12.10;97.60;;;;;;5000324;28;20049;-73
2023/10/17 07:58:57;;;;;;;8.98;5.72;;;12.20;97.70;;;;;;5005564;28;20027;-72
2023/10/17 08:01:31;;;;;;;6.60;5.25;;;12.20;98.00;;;;;;5008150;28;20483;-74
2023/10/17 08:04:29;;;;;;;6.90;5.13;;;12.30;97.70;;;;;;5009584;28;20038;-75
2023/10/17 08:06:46;;;;;;;9.38;5.95;;;12.30;97.70;;;;;;5008768;28;20029;-73
2023/10/17 08:11:51;;;;;;;7.25;4.97;;;12.20;97.70;;;;;;5011011;28;20041;-74
2023/10/17 08:14:19;;;;;;;6.93;5.15;;;12.30;97.50;;;;;;5005962;28;20057;-74
2023/10/17 08:16:49;;;;;;;8.52;4.85;;;12.30;97.50;;;;;;5008731;28;20110;-74
2023/10/17 08:19:15;;;;;;;6.88;4.38;;;12.30;97.50;;;;;;5008255;28;20050;-74
2023/10/17 08:22:10;;;;;;;6.25;4.60;;;12.30;97.40;;;;;;5001112;28;20486;-74
2023/10/17 08:27:13;;;;;;;7.30;4.00;;;12.50;97.50;;;;;;5005032;28;20057;-76
2023/10/17 08:29:43;;;;;;;8.80;4.47;;;12.50;97.60;;;;;;4998413;28;20037;-75
2023/10/17 08:35:10;;;;;;;5.50;4.18;;;12.60;97.20;;;;;;5015253;28;20034;-75
2023/10/17 08:37:45;;;;;;;9.25;5.07;;;12.60;97.20;;;;;;5007521;28;20025;-76
2023/10/17 08:40:29;;;;;;;7.93;4.95;;;12.60;97.10;;;;;;5015805;28;20038;-77
2023/10/17 08:42:56;;;;;;;9.00;4.65;;;12.60;97.10;;;;;;5006092;28;20035;-78
2023/10/17 08:45:26;;;;;;;5.32;4.80;;;12.70;97.20;;;;;;5003436;28;20026;-76
2023/10/17 08:47:59;;;;;;;7.18;4.40;;;12.50;97.20;;;;;;5004355;28;20034;-78
2023/10/17 08:50:25;;;;;;;8.10;3.78;;;12.50;97.30;;;;;;5009335;28;20046;-79
2023/10/17 08:52:51;;;;;;;7.13;4.70;;;12.50;97.40;;;;;;4993609;28;20030;-78
2023/10/17 08:55:20;;;;;;;6.25;4.00;;;12.50;97.10;;;;;;4995559;28;20025;-77
2023/10/17 08:57:46;;;;;;;6.18;4.05;;;12.40;97.10;;;;;;5007012;28;20164;-80
2023/10/17 09:02:43;;;;;;;5.90;4.25;;;12.40;97.10;;;;;;5010227;28;20072;-79
2023/10/17 09:05:13;;;;;;;5.90;4.35;;;12.40;97.20;;;;;;5000060;28;20027;-79
2023/10/17 09:07:44;;;;;;;7.43;4.35;;;12.40;97.20;;;;;;5001587;28;20022;-78
2023/10/17 09:10:18;;;;;;;6.45;4.13;;;12.50;97.00;;;;;;5010653;28;20825;-78
2023/10/17 09:13:12;;;;;;;8.35;4.45;;;12.50;96.90;;;;;;5006182;28;20033;-79
2023/10/17 09:15:30;;;;;;;9.25;4.38;;;12.70;96.90;;;;;;5009602;28;20042;-82
2023/10/17 09:18:08;;;;;;;8.35;4.13;;;12.60;96.50;;;;;;5021237;28;20030;-76
2023/10/17 09:20:39;;;;;;;5.50;3.92;;;12.60;96.60;;;;;;5002718;28;20441;-77
2023/10/17 09:23:26;;;;;;;6.45;3.83;;;12.50;96.60;;;;;;5008350;28;20446;-74
2023/10/17 09:26:01;;;;;;;6.57;4.13;;;12.50;96.60;;;;;;5008915;28;20419;-80
2023/10/17 09:28:32;;;;;;;5.93;3.75;;;12.50;96.70;;;;;;5008546;28;20113;-77
2023/10/17 09:31:06;;;;;;;5.78;3.72;;;12.50;96.70;;;;;;4998541;28;20116;-79
2023/10/17 09:33:34;;;;;;;9.43;4.43;;;12.60;96.70;;;;;;5009072;28;20026;-78
2023/10/17 09:36:04;;;;;;;5.40;4.18;;;12.60;96.70;;;;;;4998579;28;20065;-78
2023/10/17 09:38:34;;;;;;;7.90;4.50;;;12.50;96.60;;;;;;5006117;28;20100;-80
2023/10/17 09:41:05;;;;;;;6.75;4.28;;;12.60;96.50;;;;;;5011374;28;20426;-73
2023/10/17 09:43:32;;;;;;;8.95;3.78;;;12.60;96.30;;;;;;5006162;28;20093;-82
2023/10/17 09:46:12;;;;;;;7.30;4.07;;;12.60;96.60;;;;;;5014951;28;20479;-83
2023/10/17 09:48:42;;;;;;;8.45;4.38;;;12.70;96.50;;;;;;5001795;28;20034;-75
2023/10/17 09:51:13;;;;;;;6.95;3.30;;;12.70;96.30;;;;;;5009349;28;20027;-78
2023/10/17 09:53:41;;;;;;;5.05;3.60;;;12.70;96.10;;;;;;5006774;28;20026;-81
2023/10/17 09:56:12;;;;;;;7.22;3.90;;;12.70;95.80;;;;;;5014828;28;20030;-77
2023/10/17 09:58:41;;;;;;;6.95;3.65;;;12.80;96.00;;;;;;5012370;28;20022;-80
2023/10/17 10:01:15;;;;;;;7.75;4.05;;;12.80;96.10;;;;;;5014611;28;20116;-82
2023/10/17 10:03:42;;;;;;;7.78;3.40;;;12.80;96.00;;;;;;5005726;28;20025;-81
2023/10/17 10:06:32;;;;;;;6.22;3.90;;;12.80;95.80;;;;;;4999501;28;20033;-82
2023/10/17 10:09:13;;;;;;;6.15;3.53;;;12.90;95.90;;;;;;4997958;28;20132;-77
2023/10/17 10:11:48;;;;;;;9.43;3.78;;;12.90;95.90;;;;;;4995349;28;20022;-76
2023/10/17 10:14:15;;;;;;;5.65;3.50;;;12.90;95.90;;;;;;4999369;28;20033;-75
2023/10/17 10:16:55;;;;;;;4.47;3.53;;;12.90;95.70;;;;;;5000920;28;20034;-75
2023/10/17 10:19:32;;;;;;;5.60;3.50;;;12.80;95.80;;;;;;4999484;28;20029;-73
2023/10/17 10:21:59;;;;;;;5.07;3.28;;;12.90;95.70;;;;;;5003020;28;20522;-73
2023/10/17 10:24:36;;;;;;;4.57;3.30;;;12.90;95.90;;;;;;5002385;28;20049;-74
2023/10/17 10:27:24;;;;;;;5.45;3.60;;;13.10;95.60;;;;;;5010270;28;20022;-71
2023/10/17 10:29:55;;;;;;;5.20;2.92;;;13.20;95.20;;;;;;5008785;28;20034;-73
2023/10/17 10:32:38;;;;;;;6.32;3.55;;;13.30;95.20;;;;;;5004308;28;20053;-73
2023/10/17 10:35:05;;;;;;;7.82;2.97;;;13.20;95.00;;;;;;5001853;28;20021;-74
2023/10/17 10:37:32;;;;;;;5.32;3.25;;;13.20;94.80;;;;;;5007711;28;20057;-77
2023/10/17 10:40:34;;;;;;;4.10;2.92;;;13.20;94.70;;;;;;5014293;28;20026;-76
2023/10/17 10:43:01;;;;;;;5.35;3.50;;;13.30;94.60;;;;;;5002031;28;20399;-77
2023/10/17 10:45:28;;;;;;;4.90;3.00;;;13.30;94.30;;;;;;5013150;28;20022;-78
2023/10/17 10:48:04;;;;;;;6.20;3.03;;;13.40;94.40;;;;;;5010866;28;20034;-73
2023/10/17 10:50:35;;;;;;;4.82;2.70;;;13.40;94.20;;;;;;5014533;28;20106;-78
2023/10/17 10:53:03;;;;;;;5.82;2.97;;;13.60;94.60;;;;;;5006498;28;20026;-73
2023/10/17 10:55:30;;;;;;;6.05;2.78;;;13.60;94.60;;;;;;5007116;28;20500;-76
2023/10/17 10:58:00;;;;;;;5.38;2.20;;;13.70;94.60;;;;;;5013778;28;20030;-74
2023/10/17 11:00:26;;;;;;;4.63;2.42;;;13.70;94.30;;;;;;4999674;28;20026;-78
2023/10/17 11:02:52;;;;;;;4.50;2.40;;;13.70;93.90;;;;;;5005621;28;20038;-73
2023/10/17 11:05:18;;;;;;;5.53;2.83;;;13.60;93.60;;;;;;5005362;28;20080;-77
2023/10/17 11:07:44;;;;;;;4.72;2.40;;;13.60;93.50;;;;;;4998006;28;20475;-75
2023/10/17 11:10:11;;;;;;;3.92;2.10;;;13.70;93.60;;;;;;5001882;28;20620;-78
2023/10/17 11:12:38;;;;;;;4.40;2.58;;;13.70;93.40;;;;;;5004786;28;20022;-73
2023/10/17 11:15:22;;;;;;;5.32;2.40;;;13.50;93.00;;;;;;5009787;28;20104;-74
2023/10/17 11:17:47;;;;;;;3.83;2.03;;;13.50;93.40;;;;;;5001563;28;20033;-74
2023/10/17 11:20:17;;;;;;;2.38;1.60;;;13.50;93.30;;;;;;5010689;28;20034;-75
2023/10/17 11:22:46;;;;;;;6.47;2.55;;;13.60;93.30;;;;;;5005064;28;20030;-74
2023/10/17 11:25:15;;;;;;;4.03;1.83;;;13.70;93.30;;;;;;5003901;28;20026;-76
2023/10/17 11:27:49;;;;;;;3.03;2.60;;;13.70;93.40;;;;;;5005685;28;20034;-79
2023/10/17 11:30:19;;;;;;;3.50;1.88;;;13.80;93.30;;;;;;4997128;28;20038;-79
2023/10/17 11:32:45;;;;;;;4.97;2.13;;;13.70;93.20;;;;;;5015430;28;20033;-74
2023/10/17 11:35:19;;;;;;;4.47;2.03;;;13.70;93.00;;;;;;5009688;28;20387;-76
2023/10/17 11:37:47;;;;;;;4.18;1.77;;;13.70;93.30;;;;;;5003542;28;20034;-72
2023/10/17 11:40:47;;;;;;;2.75;1.88;;;13.70;93.30;;;;;;5006388;28;20751;-82
2023/10/17 11:43:21;;;;;;;3.28;1.85;;;13.80;93.30;;;;;;4998778;28;20052;-82
2023/10/17 11:45:47;;;;;;;2.85;1.73;;;13.80;92.70;;;;;;4995903;28;20034;-82
2023/10/17 11:48:31;;;;;;;5.13;1.77;;;13.90;92.70;;;;;;4998391;28;20018;-80
2023/10/17 11:51:12;;;;;;;4.78;2.58;;;13.90;92.90;;;;;;5000356;28;20033;-83
2023/10/17 11:54:00;;;;;;;7.28;2.67;;;13.90;93.30;;;;;;5003006;28;20030;-71
2023/10/17 11:56:26;;;;;;;3.95;2.35;;;13.90;93.00;;;;;;5001805;28;20491;-76
2023/10/17 11:58:52;;;;;;;5.43;2.30;;;13.90;93.10;;;;;;4999582;28;20020;-71
2023/10/17 12:01:18;;;;;;;3.28;1.90;;;13.90;93.10;;;;;;5001622;28;20042;-75
2023/10/17 12:03:43;;;;;;;4.45;2.25;;;14.00;93.00;;;;;;5004778;28;20422;-74
2023/10/17 12:06:15;;;;;;;4.20;2.17;;;13.90;93.20;;;;;;5025612;28;20506;-64
2023/10/17 12:08:43;;;;;;;4.70;2.22;;;14.10;92.90;;;;;;5003777;28;20113;-62
2023/10/17 12:11:10;;;;;;;5.07;1.63;;;14.10;93.00;;;;;;4999779;28;20488;-59
2023/10/17 12:13:35;;;;;;;4.18;1.90;;;14.20;92.70;;;;;;4994663;28;20193;-59
2023/10/17 12:16:08;;;;;;;3.78;1.88;;;14.30;92.50;;;;;;5007216;28;20502;-62
2023/10/17 12:18:35;;;;;;;4.68;1.70;;;14.20;92.00;;;;;;4995045;28;20026;-63
2023/10/17 12:21:01;;;;;;;5.00;2.00;;;14.30;92.50;;;;;;4995774;28;20023;-62
2023/10/17 12:23:30;;;;;;;4.55;2.10;;;14.40;92.60;;;;;;5003622;28;20455;-67
2023/10/17 12:26:07;;;;;;;4.45;1.70;;;14.30;92.10;;;;;;5004962;28;20416;-63
2023/10/17 12:28:33;;;;;;;5.43;1.60;;;14.30;91.90;;;;;;5001408;28;20472;-72
2023/10/17 12:30:59;;;;;;;6.25;1.80;;;14.40;92.10;;;;;;4999834;28;20033;-64
2023/10/17 12:33:25;;;;;;;5.05;1.65;;;14.40;91.70;;;;;;4997739;28;20076;-59
2023/10/17 12:35:53;;;;;;;4.65;1.65;;;14.40;91.70;;;;;;4998848;28;20460;-72
2023/10/17 12:38:25;;;;;;;3.22;1.38;;;14.40;91.70;;;;;;5001079;28;20042;-60
2023/10/17 12:40:52;;;;;;;4.03;1.35;;;14.40;91.80;;;;;;4996437;28;20054;-64
2023/10/17 12:43:19;;;;;;;2.65;1.77;;;14.50;91.80;;;;;;4999028;28;20364;-64
2023/10/17 12:45:45;;;;;;;3.30;1.80;;;14.50;91.90;;;;;;4997198;28;20022;-59
2023/10/17 12:48:11;;;;;;;2.60;1.40;;;14.50;91.40;;;;;;4999593;28;20034;-72
2023/10/17 12:50:43;;;;;;;5.93;1.85;;;14.40;91.20;;;;;;5003829;28;20076;-65
2023/10/17 12:53:10;;;;;;;3.83;1.45;;;14.50;91.50;;;;;;5000357;28;20593;-67
2023/10/17 12:55:38;;;;;;;4.88;1.70;;;14.50;91.50;;;;;;5008695;28;20026;-64
2023/10/17 12:58:06;;;;;;;3.17;1.50;;;14.50;91.10;;;;;;5006563;28;20018;-61
2023/10/17 13:00:33;;;;;;;4.10;1.30;;;14.40;91.10;;;;;;5003441;28;20065;-62
2023/10/17 13:02:58;;;;;;;3.00;1.27;;;14.50;91.00;;;;;;5011372;28;20467;-63
2023/10/17 13:05:25;;;;;;;4.00;1.60;;;14.50;90.90;;;;;;5009627;28;20490;-60
2023/10/17 13:07:52;;;;;;;4.50;1.77;;;14.60;91.00;;;;;;5010140;28;20022;-59
2023/10/17 13:10:21;;;;;;;3.03;1.52;;;14.50;91.00;;;;;;5009281;28;20034;-59
2023/10/17 13:12:47;;;;;;;4.88;1.63;;;14.60;91.30;;;;;;5012824;28;20537;-60
2023/10/17 13:15:15;;;;;;;4.32;1.90;;;14.60;91.30;;;;;;5014209;28;20030;-59
2023/10/17 13:17:41;;;;;;;6.22;1.52;;;14.60;91.40;;;;;;5006606;28;20029;-59
2023/10/17 13:20:07;;;;;;;4.85;1.40;;;14.70;91.80;;;;;;5007138;28;20026;-59
2023/10/17 13:22:52;;;;;;;2.47;1.33;;;14.70;91.20;;;;;;4999301;28;20026;-59
2023/10/17 13:25:18;;;;;;;3.92;1.50;;;14.70;90.70;;;;;;5024215;28;20025;-59
2023/10/17 13:27:45;;;;;;;2.90;1.42;;;14.70;90.50;;;;;;5005290;28;20022;-59
2023/10/17 13:30:11;;;;;;;2.38;1.40;;;14.70;90.60;;;;;;5005714;28;20117;-67
2023/10/17 13:32:37;;;;;;;5.43;1.30;;;14.70;90.20;;;;;;5009038;28;20112;-62
2023/10/17 13:35:03;;;;;;;2.95;1.02;;;14.70;90.60;;;;;;5012306;28;20454;-58
2023/10/17 13:37:29;;;;;;;4.53;1.48;;;14.70;90.60;;;;;;5005106;28;20537;-59
2023/10/17 13:39:55;;;;;;;4.95;1.25;;;14.70;90.50;;;;;;5008649;28;20038;-59
2023/10/17 13:42:21;;;;;;;3.75;1.58;;;14.70;90.30;;;;;;5013417;28;20080;-62
2023/10/17 13:44:46;;;;;;;3.75;1.33;;;14.70;90.40;;;;;;5010151;28;20030;-62
2023/10/17 13:47:13;;;;;;;2.67;1.30;;;14.80;90.40;;;;;;5017307;28;20021;-60
2023/10/17 13:49:39;;;;;;;2.22;1.13;;;14.80;90.10;;;;;;5013217;28;20086;-63
2023/10/17 13:52:05;;;;;;;4.03;1.38;;;14.80;90.40;;;;;;5009602;28;20061;-76
2023/10/17 13:54:37;;;;;;;3.17;0.98;;;14.80;90.00;;;;;;4999455;28;20065;-60
2023/10/17 13:57:06;;;;;;;4.70;0.95;;;14.90;90.20;;;;;;5010605;28;20033;-63
2023/10/17 13:59:39;;;;;;;3.25;1.20;;;14.80;89.70;;;;;;5011891;28;20037;-66
2023/10/17 14:02:08;;;;;;;3.60;1.50;;;14.80;89.80;;;;;;5010714;28;20023;-61
2023/10/17 14:04:38;;;;;;;3.45;1.40;;;14.90;89.80;;;;;;5005558;28;20018;-65
2023/10/17 14:07:04;;;;;;;3.03;1.40;;;14.90;90.10;;;;;;5006144;28;20118;-68
2023/10/17 14:09:30;;;;;;;4.95;1.65;;;14.90;90.10;;;;;;5013533;28;20112;-62
2023/10/17 14:11:56;;;;;;;3.55;1.30;;;15.00;90.50;;;;;;5010180;28;20034;-62
2023/10/17 14:14:25;;;;;;;2.95;1.30;;;14.90;90.50;;;;;;5021056;28;20026;-59
2023/10/17 14:16:55;;;;;;;3.33;1.27;;;15.00;90.70;;;;;;5006581;28;20029;-60
2023/10/17 14:19:37;;;;;;;4.07;1.50;;;15.00;90.50;;;;;;5010629;28;20030;-59
2023/10/17 14:22:21;;;;;;;5.05;1.50;;;15.00;90.30;;;;;;4999408;28;20101;-69
2023/10/17 14:24:50;;;;;;;4.40;1.48;;;15.00;90.50;;;;;;5003754;28;20042;-60
2023/10/17 14:27:24;;;;;;;1.90;1.17;;;15.10;90.70;;;;;;5011678;28;20032;-60
2023/10/17 14:29:51;;;;;;;2.75;1.10;;;15.10;90.60;;;;;;5002861;28;20042;-64
2023/10/17 14:32:22;;;;;;;2.63;1.15;;;15.10;90.70;;;;;;5011815;28;20038;-71
2023/10/17 14:34:48;;;;;;;2.20;0.88;;;15.00;90.40;;;;;;5003263;28;20034;-60
2023/10/17 14:37:14;;;;;;;2.92;1.08;;;15.00;90.10;;;;;;4997002;28;20109;-59
2023/10/17 14:39:41;;;;;;;4.07;1.30;;;15.00;89.90;;;;;;5008755;28;20049;-59
2023/10/17 14:42:10;;;;;;;3.08;1.20;;;15.00;89.70;;;;;;5006860;28;20460;-59
2023/10/17 14:44:37;;;;;;;7.18;1.20;;;15.00;89.70;;;;;;5007083;28;20552;-61
2023/10/17 14:47:06;;;;;;;4.05;1.00;;;15.00;90.20;;;;;;5010281;28;20080;-59
2023/10/17 14:49:32;;;;;;;3.78;1.20;;;15.00;90.30;;;;;;5012826;28;20542;-66
2023/10/17 14:51:57;;;;;;;2.88;1.08;;;15.00;90.10;;;;;;4999582;28;20129;-59
2023/10/17 14:54:23;;;;;;;5.88;1.35;;;15.10;90.10;;;;;;4995667;28;20034;-59
2023/10/17 14:56:53;;;;;;;2.45;0.98;;;15.10;90.30;;;;;;4994516;28;20034;-72
2023/10/17 14:59:18;;;;;;;3.00;1.08;;;15.00;90.30;;;;;;5005919;28;20057;-59
2023/10/17 15:01:45;;;;;;;3.00;1.20;;;15.10;90.50;;;;;;5005442;28;20049;-60
2023/10/17 15:04:11;;;;;;;4.90;1.23;;;15.10;90.60;;;;;;5001579;28;20021;-59
2023/10/17 15:06:39;;;;;;;3.50;1.25;;;15.20;90.40;;;;;;5006768;28;20026;-73
2023/10/17 15:09:08;;;;;;;2.35;1.10;;;15.20;90.40;;;;;;5005486;28;20084;-59